createdAt,value
2022-12-13T00:01:48.840Z,-2.80
2022-12-13T00:04:17.697Z,-2.80
2022-12-13T00:06:46.028Z,-2.90
2022-12-13T00:09:15.584Z,-3.00
2022-12-13T00:11:44.362Z,-2.90
2022-12-13T00:14:14.120Z,-2.90
2022-12-13T00:16:45.650Z,-2.90
2022-12-13T00:19:15.994Z,-2.90
2022-12-13T00:21:44.211Z,-2.90
2022-12-13T00:24:12.673Z,-2.90
2022-12-13T00:26:40.882Z,-2.90
2022-12-13T00:29:09.659Z,-3.00
2022-12-13T00:34:27.406Z,-3.10
2022-12-13T00:36:59.151Z,-3.10
2022-12-13T00:39:28.976Z,-3.10
2022-12-13T00:41:58.215Z,-3.20
2022-12-13T00:44:26.483Z,-3.10
2022-12-13T00:46:54.755Z,-3.10
2022-12-13T00:49:22.964Z,-3.20
2022-12-13T00:51:52.512Z,-3.20
2022-12-13T00:54:20.819Z,-3.30
2022-12-13T00:56:51.268Z,-3.30
2022-12-13T00:59:20.421Z,-3.30
2022-12-13T01:01:48.583Z,-3.30
2022-12-13T01:04:16.747Z,-3.30
2022-12-13T01:06:46.563Z,-3.30
2022-12-13T01:09:19.596Z,-3.20
2022-12-13T01:11:49.114Z,-3.30
2022-12-13T01:14:18.560Z,-3.30
2022-12-13T01:16:46.894Z,-3.30
2022-12-13T01:19:15.191Z,-3.30
2022-12-13T01:21:43.365Z,-3.30
2022-12-13T01:24:12.150Z,-3.30
2022-12-13T01:26:41.584Z,-3.30
2022-12-13T01:29:11.529Z,-3.20
2022-12-13T01:31:41.641Z,-3.20
2022-12-13T01:34:11.347Z,-3.30
2022-12-13T01:36:40.236Z,-3.40
2022-12-13T01:39:14.731Z,-3.30
2022-12-13T01:41:45.603Z,-3.30
2022-12-13T01:44:53.460Z,-3.30
2022-12-13T01:47:25.855Z,-3.30
2022-12-13T01:49:57.459Z,-3.30
2022-12-13T01:52:31.150Z,-3.30
2022-12-13T01:55:03.196Z,-3.40
2022-12-13T01:57:36.163Z,-3.40
2022-12-13T02:00:05.794Z,-3.40
2022-12-13T02:02:33.977Z,-3.40
2022-12-13T02:05:06.927Z,-3.40
2022-12-13T02:07:37.796Z,-3.50
2022-12-13T02:10:09.427Z,-3.60
2022-12-13T02:12:40.702Z,-3.60
2022-12-13T02:15:12.821Z,-3.60
2022-12-13T02:18:07.055Z,-3.70
2022-12-13T02:21:00.204Z,-3.70
2022-12-13T02:24:09.541Z,-3.70
2022-12-13T02:26:53.211Z,-3.60
2022-12-13T02:29:51.379Z,-3.60
2022-12-13T02:32:29.961Z,-3.60
2022-12-13T02:35:04.731Z,-3.60
2022-12-13T02:37:43.510Z,-3.50
2022-12-13T02:40:17.732Z,-3.60
2022-12-13T02:42:54.015Z,-3.60
2022-12-13T02:45:26.878Z,-3.60
2022-12-13T02:47:58.887Z,-3.60
2022-12-13T02:50:28.767Z,-3.70
2022-12-13T02:52:57.657Z,-3.60
2022-12-13T02:55:28.381Z,-3.50
2022-12-13T02:57:56.982Z,-3.40
2022-12-13T03:00:32.241Z,-3.30
2022-12-13T03:03:12.714Z,-3.20
2022-12-13T03:06:07.387Z,-3.20
2022-12-13T03:08:45.796Z,-3.30
2022-12-13T03:11:17.421Z,-3.20
2022-12-13T03:13:51.122Z,-3.20
2022-12-13T03:16:30.245Z,-3.40
2022-12-13T03:19:02.644Z,-3.40
2022-12-13T03:21:31.667Z,-3.10
2022-12-13T03:23:59.763Z,-3.10
2022-12-13T03:26:28.553Z,-3.00
2022-12-13T03:28:56.784Z,-2.90
2022-12-13T03:31:25.012Z,-3.10
2022-12-13T03:33:53.178Z,-3.00
2022-12-13T03:36:23.070Z,-2.90
2022-12-13T03:38:53.285Z,-3.00
2022-12-13T03:41:31.347Z,-3.00
2022-12-13T03:44:00.088Z,-2.90
2022-12-13T03:46:28.377Z,-2.90
2022-12-13T03:51:26.445Z,-3.10
2022-12-13T03:53:54.604Z,-3.30
2022-12-13T03:56:22.752Z,-3.20
2022-12-13T03:58:50.928Z,-3.20
2022-12-13T04:01:19.569Z,-3.10
2022-12-13T04:03:48.637Z,-3.00
2022-12-13T04:06:21.775Z,-2.90
2022-12-13T04:08:52.669Z,-2.90
2022-12-13T04:11:42.758Z,-2.80
2022-12-13T04:14:12.339Z,-2.80
2022-12-13T04:16:50.636Z,-2.70
2022-12-13T04:19:23.064Z,-2.80
2022-12-13T04:21:52.078Z,-2.70
2022-12-13T04:24:21.545Z,-2.70
2022-12-13T04:26:59.224Z,-2.60
2022-12-13T04:29:33.744Z,-2.70
2022-12-13T04:32:03.949Z,-2.70
2022-12-13T04:34:37.312Z,-2.70
2022-12-13T04:37:06.192Z,-2.70
2022-12-13T04:39:35.784Z,-2.80
2022-12-13T04:42:04.705Z,-2.70
2022-12-13T04:44:36.754Z,-2.60
2022-12-13T04:47:05.655Z,-2.60
2022-12-13T04:49:34.143Z,-2.60
2022-12-13T04:52:03.179Z,-2.50
2022-12-13T04:54:36.168Z,-2.50
2022-12-13T04:57:08.342Z,-2.50
2022-12-13T04:59:36.883Z,-2.60
2022-12-13T05:02:06.060Z,-2.50
2022-12-13T05:04:34.534Z,-2.60
2022-12-13T05:07:03.291Z,-2.40
2022-12-13T05:09:31.541Z,-2.40
2022-12-13T05:12:01.553Z,-2.50
2022-12-13T05:14:33.832Z,-2.50
2022-12-13T05:17:02.684Z,-2.40
2022-12-13T05:19:31.814Z,-2.40
2022-12-13T05:22:01.961Z,-2.40
2022-12-13T05:24:31.304Z,-2.30
2022-12-13T05:26:59.793Z,-2.50
2022-12-13T05:29:28.420Z,-2.50
2022-12-13T05:31:57.977Z,-2.50
2022-12-13T05:34:26.256Z,-2.50
2022-12-13T05:36:54.357Z,-2.60
2022-12-13T05:39:29.339Z,-2.60
2022-12-13T05:42:01.422Z,-2.60
2022-12-13T05:44:31.836Z,-2.60
2022-12-13T05:47:01.957Z,-2.70
2022-12-13T05:49:31.302Z,-2.60
2022-12-13T05:51:59.626Z,-2.70
2022-12-13T05:54:27.902Z,-2.70
2022-12-13T05:56:56.108Z,-2.70
2022-12-13T05:59:24.399Z,-2.70
2022-12-13T06:01:52.759Z,-2.70
2022-12-13T06:04:23.487Z,-2.80
2022-12-13T06:06:52.602Z,-2.90
2022-12-13T06:09:21.665Z,-2.90
2022-12-13T06:11:50.195Z,-2.90
2022-12-13T06:14:22.223Z,-2.90
2022-12-13T06:16:52.425Z,-2.90
2022-12-13T06:19:22.325Z,-2.90
2022-12-13T06:21:50.675Z,-3.00
2022-12-13T06:24:20.911Z,-3.10
2022-12-13T06:26:49.744Z,-3.20
2022-12-13T06:29:23.884Z,-3.20
2022-12-13T06:31:55.059Z,-3.20
2022-12-13T06:34:33.886Z,-3.20
2022-12-13T06:37:02.243Z,-3.10
2022-12-13T06:39:32.448Z,-3.20
2022-12-13T06:42:02.746Z,-3.10
2022-12-13T06:44:30.983Z,-3.10
2022-12-13T06:47:11.292Z,-3.10
2022-12-13T06:49:44.442Z,-3.10
2022-12-13T06:52:14.386Z,-3.10
2022-12-13T06:54:43.342Z,-3.00
2022-12-13T06:57:12.306Z,-3.00
2022-12-13T06:59:41.227Z,-3.00
2022-12-13T07:02:15.403Z,-3.10
2022-12-13T07:04:55.772Z,-3.10
2022-12-13T07:07:25.049Z,-3.00
2022-12-13T07:09:53.568Z,-3.10
2022-12-13T07:12:23.385Z,-3.20
2022-12-13T07:14:52.199Z,-3.20
2022-12-13T07:17:32.481Z,-3.30
2022-12-13T07:20:08.113Z,-3.50
2022-12-13T07:22:44.810Z,-3.60
2022-12-13T07:25:27.092Z,-3.50
2022-12-13T07:28:01.672Z,-3.60
2022-12-13T07:30:31.157Z,-3.60
2022-12-13T07:32:59.426Z,-3.60
2022-12-13T07:35:28.905Z,-3.70
2022-12-13T07:37:57.207Z,-3.60
2022-12-13T07:40:25.885Z,-3.60
2022-12-13T07:42:54.771Z,-3.60
2022-12-13T07:45:24.479Z,-3.60
2022-12-13T07:47:52.653Z,-3.60
2022-12-13T07:50:24.924Z,-3.60
2022-12-13T07:52:55.154Z,-3.60
2022-12-13T07:55:33.417Z,-3.70
2022-12-13T07:58:09.705Z,-3.60
2022-12-13T08:00:38.200Z,-3.60
2022-12-13T08:03:06.912Z,-3.60
2022-12-13T08:05:38.919Z,-3.60
2022-12-13T08:08:10.273Z,-3.60
2022-12-13T08:10:38.444Z,-3.70
2022-12-13T08:13:07.314Z,-3.60
2022-12-13T08:15:35.447Z,-3.60
2022-12-13T08:18:04.110Z,-3.70
2022-12-13T08:20:32.273Z,-3.70
2022-12-13T08:23:01.995Z,-3.60
2022-12-13T08:25:33.438Z,-3.50
2022-12-13T08:28:02.629Z,-3.50
2022-12-13T08:30:33.049Z,-3.50
2022-12-13T08:33:05.345Z,-3.50
2022-12-13T08:35:34.773Z,-3.50
2022-12-13T08:38:03.827Z,-3.50
2022-12-13T08:40:34.931Z,-3.40
2022-12-13T08:43:03.918Z,-3.40
2022-12-13T08:45:34.264Z,-3.30
2022-12-13T08:48:03.310Z,-3.20
2022-12-13T08:50:31.906Z,-3.20
2022-12-13T08:53:00.087Z,-3.10
2022-12-13T08:55:32.129Z,-3.10
2022-12-13T08:58:07.000Z,-3.00
2022-12-13T09:00:35.728Z,-2.90
2022-12-13T09:03:04.603Z,-2.90
2022-12-13T09:05:35.172Z,-2.70
2022-12-13T09:08:13.229Z,-2.60
2022-12-13T09:10:59.380Z,-2.40
2022-12-13T09:13:31.382Z,-2.40
2022-12-13T09:16:01.577Z,-2.40
2022-12-13T09:18:36.591Z,-2.20
2022-12-13T09:21:10.685Z,-2.20
2022-12-13T09:23:45.633Z,-2.00
2022-12-13T09:26:38.298Z,-2.20
2022-12-13T09:29:10.569Z,-2.00
2022-12-13T09:31:40.629Z,-1.90
2022-12-13T09:34:09.591Z,-1.80
2022-12-13T09:36:37.768Z,-1.90
2022-12-13T09:39:05.927Z,-1.90
2022-12-13T09:41:40.564Z,-1.80
2022-12-13T09:44:31.603Z,-1.80
2022-12-13T09:47:03.234Z,-1.80
2022-12-13T09:49:35.723Z,-1.80
2022-12-13T09:52:11.026Z,-1.80
2022-12-13T09:54:48.394Z,-1.80
2022-12-13T09:57:31.460Z,-1.80
2022-12-13T10:00:05.414Z,-1.70
2022-12-13T10:02:38.140Z,-1.70
2022-12-13T10:05:21.837Z,-1.60
2022-12-13T10:07:55.442Z,-1.60
2022-12-13T10:10:23.945Z,-1.60
2022-12-13T10:12:59.356Z,-1.60
2022-12-13T10:15:31.621Z,-1.50
2022-12-13T10:18:00.772Z,-1.40
2022-12-13T10:20:30.806Z,-1.40
2022-12-13T10:23:31.303Z,-1.30
2022-12-13T10:25:51.709Z,-1.30
2022-12-13T10:28:27.187Z,-1.30
2022-12-13T10:30:58.191Z,-1.20
2022-12-13T10:33:29.821Z,-1.20
2022-12-13T10:36:09.964Z,-1.20
2022-12-13T10:38:40.039Z,-1.20
2022-12-13T10:41:29.316Z,-1.10
2022-12-13T10:44:24.203Z,-1.10
2022-12-13T10:47:03.410Z,-1.00
2022-12-13T10:49:39.524Z,-0.90
2022-12-13T10:52:31.663Z,-0.70
2022-12-13T10:55:04.582Z,-0.60
2022-12-13T10:57:53.630Z,-0.50
2022-12-13T11:00:40.739Z,-0.40
2022-12-13T11:03:14.895Z,-0.40
2022-12-13T11:05:44.229Z,-0.30
2022-12-13T11:08:17.660Z,-0.30
2022-12-13T11:10:46.081Z,-0.20
2022-12-13T11:13:29.326Z,-0.20
2022-12-13T11:15:57.920Z,-0.10
2022-12-13T11:18:30.500Z,-0.10
2022-12-13T11:21:01.572Z,-0.10
2022-12-13T11:23:33.910Z,-0.10
2022-12-13T11:26:07.026Z,-0.10
2022-12-13T11:28:52.266Z,-0.20
2022-12-13T11:31:29.492Z,-0.20
2022-12-13T11:34:05.656Z,-0.30
2022-12-13T11:36:43.624Z,-0.10
2022-12-13T11:39:20.761Z,-0.20
2022-12-13T11:41:55.393Z,-0.20
2022-12-13T11:44:34.457Z,-0.20
2022-12-13T11:47:03.026Z,-0.20
2022-12-13T11:49:39.399Z,-0.20
2022-12-13T11:52:15.298Z,-0.10
2022-12-13T11:54:53.012Z,-0.10
2022-12-13T11:57:34.239Z,-0.10
2022-12-13T12:00:13.306Z,-0.10
2022-12-13T12:02:45.729Z,-0.10
2022-12-13T12:05:28.415Z,-0.10
2022-12-13T12:11:01.082Z,-0.20
2022-12-13T12:13:33.533Z,-0.10
2022-12-13T12:16:11.681Z,-0.10
2022-12-13T12:18:40.024Z,-0.10
2022-12-13T12:21:20.991Z,-0.10
2022-12-13T12:23:59.297Z,-0.10
2022-12-13T12:26:35.290Z,-0.10
2022-12-13T12:29:24.650Z,-0.10
2022-12-13T12:32:04.746Z,0.00
2022-12-13T12:34:41.643Z,0.10
2022-12-13T12:37:20.527Z,0.20
2022-12-13T12:40:02.385Z,0.30
2022-12-13T12:43:14.091Z,0.40
2022-12-13T12:45:58.021Z,0.40
2022-12-13T12:49:03.214Z,0.40
2022-12-13T12:51:46.597Z,0.40
2022-12-13T12:54:35.805Z,0.40
2022-12-13T12:57:14.348Z,0.60
2022-12-13T12:59:59.810Z,0.60
2022-12-13T13:02:37.518Z,0.70
2022-12-13T13:05:16.466Z,0.70
2022-12-13T13:07:51.487Z,0.60
2022-12-13T13:10:26.234Z,0.60
2022-12-13T13:13:12.577Z,0.50
2022-12-13T13:15:58.651Z,0.40
2022-12-13T13:18:47.812Z,0.40
2022-12-13T13:21:43.956Z,0.40
2022-12-13T13:24:25.573Z,0.40
2022-12-13T13:26:56.969Z,0.40
2022-12-13T13:29:33.367Z,0.30
2022-12-13T13:32:05.184Z,0.20
2022-12-13T13:34:36.017Z,0.20
2022-12-13T13:37:05.169Z,0.20
2022-12-13T13:40:01.571Z,0.30
2022-12-13T13:42:32.378Z,0.20
2022-12-13T13:45:20.374Z,0.20
2022-12-13T13:48:04.802Z,0.20
2022-12-13T13:51:31.165Z,0.10
2022-12-13T13:54:29.516Z,0.10
2022-12-13T13:57:45.572Z,0.10
2022-12-13T14:00:21.080Z,0.00
2022-12-13T14:03:29.240Z,0.00
2022-12-13T14:06:30.629Z,-0.10
2022-12-13T14:09:16.953Z,-0.10
2022-12-13T14:12:14.440Z,-0.10
2022-12-13T14:15:18.317Z,0.00
2022-12-13T14:18:29.229Z,-0.10
2022-12-13T14:21:08.042Z,-0.10
2022-12-13T14:23:54.716Z,-0.10
2022-12-13T14:26:51.317Z,-0.20
2022-12-13T14:29:25.315Z,-0.20
2022-12-13T14:31:53.406Z,-0.20
2022-12-13T14:34:25.307Z,-0.20
2022-12-13T14:36:59.944Z,-0.20
2022-12-13T14:39:29.559Z,-0.30
2022-12-13T14:41:59.720Z,-0.30
2022-12-13T14:44:29.269Z,-0.30
2022-12-13T14:46:59.902Z,-0.30
2022-12-13T14:49:31.757Z,-0.30
2022-12-13T14:52:06.178Z,-0.30
2022-12-13T14:54:45.341Z,-0.30
2022-12-13T14:57:17.214Z,-0.30
2022-12-13T14:59:50.499Z,-0.40
2022-12-13T15:02:30.650Z,-0.40
2022-12-13T15:05:01.341Z,-0.40
2022-12-13T15:07:34.318Z,-0.50
2022-12-13T15:10:05.144Z,-0.50
2022-12-13T15:12:33.507Z,-0.50
2022-12-13T15:15:04.105Z,-0.50
2022-12-13T15:17:35.072Z,-0.60
2022-12-13T15:20:21.602Z,-0.60
2022-12-13T15:22:58.558Z,-0.60
2022-12-13T15:25:26.810Z,-0.60
2022-12-13T15:27:55.975Z,-0.60
2022-12-13T15:30:31.192Z,-0.60
2022-12-13T15:33:07.862Z,-0.60
2022-12-13T15:35:37.937Z,-0.60
2022-12-13T15:38:13.999Z,-0.60
2022-12-13T15:40:58.168Z,-0.70
2022-12-13T15:43:34.186Z,-0.70
2022-12-13T15:46:02.849Z,-0.70
2022-12-13T15:48:34.269Z,-0.70
2022-12-13T15:51:11.006Z,-0.70
2022-12-13T15:53:42.024Z,-0.70
2022-12-13T15:56:31.397Z,-0.70
2022-12-13T15:59:01.217Z,-0.70
2022-12-13T16:01:30.965Z,-0.80
2022-12-13T16:03:59.196Z,-0.80
2022-12-13T16:06:28.131Z,-0.80
2022-12-13T16:09:00.931Z,-0.80
2022-12-13T16:11:32.144Z,-0.80
2022-12-13T16:14:37.976Z,-0.80
2022-12-13T16:17:11.517Z,-0.80
2022-12-13T16:19:39.872Z,-0.80
2022-12-13T16:22:08.417Z,-0.80
2022-12-13T16:24:38.758Z,-0.80
2022-12-13T16:27:08.848Z,-0.80
2022-12-13T16:29:37.331Z,-0.80
2022-12-13T16:32:08.243Z,-0.80
2022-12-13T16:34:37.312Z,-0.90
2022-12-13T16:37:08.450Z,-0.80
2022-12-13T16:39:38.428Z,-0.80
2022-12-13T16:42:06.622Z,-0.80
2022-12-13T16:44:37.463Z,-0.80
2022-12-13T16:47:12.517Z,-0.80
2022-12-13T16:49:46.979Z,-0.80
2022-12-13T16:52:15.045Z,-0.80
2022-12-13T16:54:44.565Z,-0.90
2022-12-13T16:57:12.771Z,-0.90
2022-12-13T16:59:41.001Z,-0.90
2022-12-13T17:02:18.541Z,-0.90
2022-12-13T17:04:46.794Z,-0.90
2022-12-13T17:07:15.915Z,-0.90
2022-12-13T17:09:45.414Z,-1.00
2022-12-13T17:12:13.503Z,-0.90
2022-12-13T17:14:41.650Z,-0.90
2022-12-13T17:17:12.970Z,-1.00
2022-12-13T17:19:45.312Z,-0.90
2022-12-13T17:22:13.364Z,-0.90
2022-12-13T17:24:41.461Z,-0.90
2022-12-13T17:27:10.931Z,-1.00
2022-12-13T17:29:39.074Z,-0.90
2022-12-13T17:32:07.285Z,-0.90
2022-12-13T17:34:35.483Z,-0.90
2022-12-13T17:37:10.037Z,-0.90
2022-12-13T17:39:38.631Z,-0.90
2022-12-13T17:42:07.158Z,-0.90
2022-12-13T17:44:37.001Z,-0.80
2022-12-13T17:47:05.601Z,-0.90
2022-12-13T17:49:33.664Z,-0.80
2022-12-13T17:52:01.874Z,-0.80
2022-12-13T17:54:30.071Z,-0.80
2022-12-13T17:56:58.165Z,-0.80
2022-12-13T17:59:27.196Z,-0.80
2022-12-13T18:01:57.203Z,-0.80
2022-12-13T18:04:25.374Z,-0.80
2022-12-13T18:06:53.452Z,-0.80
2022-12-13T18:09:21.523Z,-0.80
2022-12-13T18:11:49.662Z,-0.70
2022-12-13T18:14:17.912Z,-0.80
2022-12-13T18:16:46.783Z,-0.80
2022-12-13T18:19:16.611Z,-0.70
2022-12-13T18:21:44.911Z,-0.70
2022-12-13T18:24:13.282Z,-0.70
2022-12-13T18:26:41.560Z,-0.60
2022-12-13T18:29:09.990Z,-0.60
2022-12-13T18:31:38.200Z,-0.60
2022-12-13T18:34:06.596Z,-0.60
2022-12-13T18:36:36.600Z,-0.60
2022-12-13T18:39:05.475Z,-0.60
2022-12-13T18:41:34.137Z,-0.60
2022-12-13T18:44:03.837Z,-0.60
2022-12-13T18:46:34.567Z,-0.60
2022-12-13T18:49:03.031Z,-0.60
2022-12-13T18:51:31.211Z,-0.60
2022-12-13T18:54:00.846Z,-0.60
2022-12-13T18:56:29.578Z,-0.60
2022-12-13T18:58:59.190Z,-0.60
2022-12-13T19:01:28.593Z,-0.60
2022-12-13T19:03:56.984Z,-0.60
2022-12-13T19:06:27.325Z,-0.60
2022-12-13T19:08:57.597Z,-0.60
2022-12-13T19:11:28.905Z,-0.60
2022-12-13T19:13:57.850Z,-0.50
2022-12-13T19:16:27.469Z,-0.50
2022-12-13T19:18:55.998Z,-0.60
2022-12-13T19:21:24.834Z,-0.50
2022-12-13T19:23:57.698Z,-0.50
2022-12-13T19:26:29.275Z,-0.50
2022-12-13T19:28:58.446Z,-0.50
2022-12-13T19:31:31.812Z,-0.50
2022-12-13T19:34:02.298Z,-0.50
2022-12-13T19:36:31.531Z,-0.50
2022-12-13T19:38:59.646Z,-0.50
2022-12-13T19:41:29.583Z,-0.50
2022-12-13T19:43:57.783Z,-0.50
2022-12-13T19:46:26.304Z,-0.50
2022-12-13T19:48:54.821Z,-0.50
2022-12-13T19:51:24.248Z,-0.50
2022-12-13T19:53:52.800Z,-0.60
2022-12-13T19:56:22.729Z,-0.60
2022-12-13T19:58:52.458Z,-0.60
2022-12-13T20:01:20.689Z,-0.70
2022-12-13T20:03:49.333Z,-0.70
2022-12-13T20:06:20.836Z,-0.70
2022-12-13T20:08:49.620Z,-0.60
2022-12-13T20:11:20.219Z,-0.70
2022-12-13T20:13:49.739Z,-0.70
2022-12-13T20:16:22.042Z,-0.70
2022-12-13T20:18:54.960Z,-0.70
2022-12-13T20:21:23.424Z,-0.70
2022-12-13T20:23:51.823Z,-0.70
2022-12-13T20:26:24.133Z,-0.60
2022-12-13T20:28:52.684Z,-0.60
2022-12-13T20:31:24.877Z,-0.70
2022-12-13T20:33:56.792Z,-0.70
2022-12-13T20:36:26.858Z,-0.70
2022-12-13T20:38:56.981Z,-0.70
2022-12-13T20:41:26.498Z,-0.70
2022-12-13T20:43:55.456Z,-0.80
2022-12-13T20:46:26.554Z,-0.80
2022-12-13T20:48:56.167Z,-0.70
2022-12-13T20:51:27.904Z,-0.70
2022-12-13T20:53:57.385Z,-0.70
2022-12-13T20:56:27.341Z,-0.70
2022-12-13T20:58:56.407Z,-0.80
2022-12-13T21:01:27.471Z,-0.70
2022-12-13T21:03:56.720Z,-0.60
2022-12-13T21:06:25.099Z,-0.60
2022-12-13T21:08:54.030Z,-0.70
2022-12-13T21:11:26.520Z,-0.60
2022-12-13T21:14:00.018Z,-0.60
2022-12-13T21:16:35.068Z,-0.60
2022-12-13T21:19:03.216Z,-0.50
2022-12-13T21:21:31.564Z,-0.40
2022-12-13T21:24:00.643Z,-0.40
2022-12-13T21:26:35.026Z,-0.40
2022-12-13T21:29:06.492Z,-0.40
2022-12-13T21:31:37.397Z,-0.30
2022-12-13T21:34:06.821Z,-0.20
2022-12-13T21:36:37.181Z,-0.20
2022-12-13T21:39:08.274Z,-0.20
2022-12-13T21:41:36.524Z,-0.10
2022-12-13T21:44:04.698Z,-0.10
2022-12-13T21:47:10.063Z,-0.10
2022-12-13T21:49:23.012Z,-0.10
2022-12-13T21:51:51.082Z,-0.20
2022-12-13T21:54:19.269Z,-0.20
2022-12-13T21:57:07.343Z,-0.10
2022-12-13T21:59:35.495Z,-0.20
2022-12-13T22:02:14.901Z,-0.30
2022-12-13T22:04:46.199Z,-0.30
2022-12-13T22:07:16.087Z,-0.30
2022-12-13T22:09:44.652Z,-0.30
2022-12-13T22:12:20.536Z,-0.30
2022-12-13T22:14:49.225Z,-0.40
2022-12-13T22:17:18.587Z,-0.40
2022-12-13T22:19:48.811Z,-0.40
2022-12-13T22:22:18.140Z,-0.40
2022-12-13T22:24:52.923Z,-0.40
2022-12-13T22:27:23.735Z,-0.40
2022-12-13T22:29:52.498Z,-0.40
2022-12-13T22:32:20.803Z,-0.40
2022-12-13T22:34:50.431Z,-0.30
2022-12-13T22:37:18.737Z,-0.30
2022-12-13T22:39:47.039Z,-0.30
2022-12-13T22:42:15.486Z,-0.20
2022-12-13T22:44:43.762Z,-0.20
2022-12-13T22:47:11.848Z,-0.30
2022-12-13T22:49:40.059Z,-0.30
2022-12-13T22:52:09.630Z,-0.40
2022-12-13T22:54:37.728Z,-0.30
2022-12-13T22:57:05.883Z,-0.30
2022-12-13T22:59:34.085Z,-0.30
2022-12-13T23:02:03.922Z,-0.20
2022-12-13T23:04:32.793Z,-0.20
2022-12-13T23:07:01.185Z,-0.20
2022-12-13T23:09:30.650Z,-0.20
2022-12-13T23:12:16.573Z,-0.10
2022-12-13T23:14:44.725Z,-0.10
2022-12-13T23:17:13.370Z,-0.10
2022-12-13T23:19:49.724Z,-0.10
2022-12-13T23:22:20.140Z,-0.20
2022-12-13T23:24:50.128Z,-0.10
2022-12-13T23:27:18.378Z,-0.20
2022-12-13T23:29:46.624Z,-0.20
2022-12-13T23:32:15.424Z,-0.20
2022-12-13T23:34:43.567Z,-0.10
2022-12-13T23:37:11.771Z,-0.20
2022-12-13T23:39:39.969Z,-0.20
2022-12-13T23:42:09.380Z,-0.20
2022-12-13T23:44:37.704Z,-0.20
2022-12-13T23:47:05.896Z,-0.20
2022-12-13T23:49:33.997Z,-0.20
2022-12-13T23:52:02.070Z,-0.20
2022-12-13T23:54:30.137Z,-0.20
2022-12-13T23:56:58.221Z,-0.30
2022-12-13T23:59:28.737Z,-0.30
